sensor_id;sensor_type;location;lat;lon;timestamp;temperature;humidity
15241;DHT22;7723;52.170;9.978;2023-05-20T00:00:12;10.20;99.90
15241;DHT22;7723;52.170;9.978;2023-05-20T00:02:40;10.20;99.90
15241;DHT22;7723;52.170;9.978;2023-05-20T00:05:07;10.20;99.90
15241;DHT22;7723;52.170;9.978;2023-05-20T00:07:34;10.20;99.90
15241;DHT22;7723;52.170;9.978;2023-05-20T00:10:01;10.20;99.90
15241;DHT22;7723;52.170;9.978;2023-05-20T00:12:30;10.20;99.90
15241;DHT22;7723;52.170;9.978;2023-05-20T00:14:57;10.10;99.90
15241;DHT22;7723;52.170;9.978;2023-05-20T00:17:24;10.10;99.90
15241;DHT22;7723;52.170;9.978;2023-05-20T00:19:53;10.00;99.90
15241;DHT22;7723;52.170;9.978;2023-05-20T00:22:20;10.00;99.90
15241;DHT22;7723;52.170;9.978;2023-05-20T00:24:47;9.90;99.90
15241;DHT22;7723;52.170;9.978;2023-05-20T00:27:14;9.80;99.90
15241;DHT22;7723;52.170;9.978;2023-05-20T00:29:43;9.80;99.90
15241;DHT22;7723;52.170;9.978;2023-05-20T00:32:10;9.70;99.90
15241;DHT22;7723;52.170;9.978;2023-05-20T00:34:38;9.70;99.90
15241;DHT22;7723;52.170;9.978;2023-05-20T00:37:05;9.70;99.90
15241;DHT22;7723;52.170;9.978;2023-05-20T00:39:32;9.60;99.90
15241;DHT22;7723;52.170;9.978;2023-05-20T00:41:59;9.50;99.90
15241;DHT22;7723;52.170;9.978;2023-05-20T00:44:28;9.50;99.90
15241;DHT22;7723;52.170;9.978;2023-05-20T00:46:56;9.50;99.90
15241;DHT22;7723;52.170;9.978;2023-05-20T00:49:23;9.40;99.90
15241;DHT22;7723;52.170;9.978;2023-05-20T00:51:50;9.40;99.90
15241;DHT22;7723;52.170;9.978;2023-05-20T00:54:18;9.40;99.90
15241;DHT22;7723;52.170;9.978;2023-05-20T00:56:45;9.40;99.90
15241;DHT22;7723;52.170;9.978;2023-05-20T00:59:13;9.40;99.90
15241;DHT22;7723;52.170;9.978;2023-05-20T01:01:41;9.30;99.90
15241;DHT22;7723;52.170;9.978;2023-05-20T01:04:09;9.30;99.90
15241;DHT22;7723;52.170;9.978;2023-05-20T01:06:36;9.30;99.90
15241;DHT22;7723;52.170;9.978;2023-05-20T01:09:04;9.20;99.90
15241;DHT22;7723;52.170;9.978;2023-05-20T01:11:35;9.20;99.90
15241;DHT22;7723;52.170;9.978;2023-05-20T01:14:06;9.20;99.90
15241;DHT22;7723;52.170;9.978;2023-05-20T01:16:35;9.10;99.90
15241;DHT22;7723;52.170;9.978;2023-05-20T01:19:02;9.10;99.90
15241;DHT22;7723;52.170;9.978;2023-05-20T01:21:34;9.00;99.90
15241;DHT22;7723;52.170;9.978;2023-05-20T01:24:03;9.00;99.90
15241;DHT22;7723;52.170;9.978;2023-05-20T01:26:31;8.90;99.90
15241;DHT22;7723;52.170;9.978;2023-05-20T01:28:58;8.90;99.90
15241;DHT22;7723;52.170;9.978;2023-05-20T01:31:32;8.90;99.90
15241;DHT22;7723;52.170;9.978;2023-05-20T01:34:05;8.90;99.90
15241;DHT22;7723;52.170;9.978;2023-05-20T01:36:33;8.90;99.90
15241;DHT22;7723;52.170;9.978;2023-05-20T01:39:03;8.90;99.90
15241;DHT22;7723;52.170;9.978;2023-05-20T01:41:31;8.80;99.90
15241;DHT22;7723;52.170;9.978;2023-05-20T01:43:59;8.90;99.90
15241;DHT22;7723;52.170;9.978;2023-05-20T01:46:26;8.90;99.90
15241;DHT22;7723;52.170;9.978;2023-05-20T01:48:58;8.90;99.90
15241;DHT22;7723;52.170;9.978;2023-05-20T01:51:25;8.80;99.90
15241;DHT22;7723;52.170;9.978;2023-05-20T01:53:52;8.90;99.90
15241;DHT22;7723;52.170;9.978;2023-05-20T01:56:20;8.90;99.90
15241;DHT22;7723;52.170;9.978;2023-05-20T01:58:47;9.00;99.90
15241;DHT22;7723;52.170;9.978;2023-05-20T02:01:15;8.90;99.90
15241;DHT22;7723;52.170;9.978;2023-05-20T02:03:42;8.90;99.90
15241;DHT22;7723;52.170;9.978;2023-05-20T02:06:09;8.90;99.90
15241;DHT22;7723;52.170;9.978;2023-05-20T02:08:37;9.00;99.90
15241;DHT22;7723;52.170;9.978;2023-05-20T02:11:04;9.00;99.90
15241;DHT22;7723;52.170;9.978;2023-05-20T02:13:32;9.10;99.90
15241;DHT22;7723;52.170;9.978;2023-05-20T02:15:59;9.10;99.90
15241;DHT22;7723;52.170;9.978;2023-05-20T02:18:26;9.00;99.90
15241;DHT22;7723;52.170;9.978;2023-05-20T02:20:53;9.00;99.90
15241;DHT22;7723;52.170;9.978;2023-05-20T02:23:20;9.10;99.90
15241;DHT22;7723;52.170;9.978;2023-05-20T02:25:47;9.10;99.90
15241;DHT22;7723;52.170;9.978;2023-05-20T02:28:15;9.10;99.90
15241;DHT22;7723;52.170;9.978;2023-05-20T02:30:43;9.10;99.90
15241;DHT22;7723;52.170;9.978;2023-05-20T02:33:11;9.20;99.90
15241;DHT22;7723;52.170;9.978;2023-05-20T02:35:38;9.20;99.90
15241;DHT22;7723;52.170;9.978;2023-05-20T02:38:05;9.30;99.90
15241;DHT22;7723;52.170;9.978;2023-05-20T02:40:33;9.30;99.90
15241;DHT22;7723;52.170;9.978;2023-05-20T02:43:00;9.30;99.90
15241;DHT22;7723;52.170;9.978;2023-05-20T02:45:27;9.30;99.90
15241;DHT22;7723;52.170;9.978;2023-05-20T02:47:55;9.40;99.90
15241;DHT22;7723;52.170;9.978;2023-05-20T02:50:22;9.40;99.90
15241;DHT22;7723;52.170;9.978;2023-05-20T02:52:50;9.50;99.90
15241;DHT22;7723;52.170;9.978;2023-05-20T02:55:17;9.50;99.90
15241;DHT22;7723;52.170;9.978;2023-05-20T02:57:44;9.50;99.90
15241;DHT22;7723;52.170;9.978;2023-05-20T03:00:11;9.60;99.90
15241;DHT22;7723;52.170;9.978;2023-05-20T03:02:39;9.60;99.90
15241;DHT22;7723;52.170;9.978;2023-05-20T03:05:08;9.60;99.90
15241;DHT22;7723;52.170;9.978;2023-05-20T03:07:35;9.70;99.90
15241;DHT22;7723;52.170;9.978;2023-05-20T03:10:02;9.70;99.90
15241;DHT22;7723;52.170;9.978;2023-05-20T03:12:31;9.80;99.90
15241;DHT22;7723;52.170;9.978;2023-05-20T03:14:58;9.80;99.90
15241;DHT22;7723;52.170;9.978;2023-05-20T03:17:25;9.80;99.90
15241;DHT22;7723;52.170;9.978;2023-05-20T03:19:52;9.80;99.90
15241;DHT22;7723;52.170;9.978;2023-05-20T03:22:22;9.90;99.90
15241;DHT22;7723;52.170;9.978;2023-05-20T03:24:49;9.90;99.90
15241;DHT22;7723;52.170;9.978;2023-05-20T03:27:17;9.90;99.90
15241;DHT22;7723;52.170;9.978;2023-05-20T03:29:44;9.90;99.90
15241;DHT22;7723;52.170;9.978;2023-05-20T03:32:12;9.90;99.90
15241;DHT22;7723;52.170;9.978;2023-05-20T03:34:39;10.00;99.90
15241;DHT22;7723;52.170;9.978;2023-05-20T03:37:07;10.00;99.90
15241;DHT22;7723;52.170;9.978;2023-05-20T03:39:35;10.00;99.90
15241;DHT22;7723;52.170;9.978;2023-05-20T03:42:03;10.00;99.90
15241;DHT22;7723;52.170;9.978;2023-05-20T03:44:30;10.10;99.90
15241;DHT22;7723;52.170;9.978;2023-05-20T03:46:57;10.10;99.90
15241;DHT22;7723;52.170;9.978;2023-05-20T03:49:24;10.10;99.90
15241;DHT22;7723;52.170;9.978;2023-05-20T03:51:51;11.00;99.90
15241;DHT22;7723;52.170;9.978;2023-05-20T03:54:18;10.20;99.90
15241;DHT22;7723;52.170;9.978;2023-05-20T03:56:46;10.20;99.90
15241;DHT22;7723;52.170;9.978;2023-05-20T03:59:14;10.30;99.90
15241;DHT22;7723;52.170;9.978;2023-05-20T04:01:42;10.30;99.90
15241;DHT22;7723;52.170;9.978;2023-05-20T04:04:09;10.30;99.90
15241;DHT22;7723;52.170;9.978;2023-05-20T04:06:36;10.30;99.90
15241;DHT22;7723;52.170;9.978;2023-05-20T04:09:05;10.30;99.90
15241;DHT22;7723;52.170;9.978;2023-05-20T04:11:32;10.30;99.90
15241;DHT22;7723;52.170;9.978;2023-05-20T04:14:01;10.40;99.90
15241;DHT22;7723;52.170;9.978;2023-05-20T04:16:28;10.40;99.90
15241;DHT22;7723;52.170;9.978;2023-05-20T04:18:55;10.40;99.90
15241;DHT22;7723;52.170;9.978;2023-05-20T04:21:23;10.40;99.90
15241;DHT22;7723;52.170;9.978;2023-05-20T04:23:50;10.40;99.90
15241;DHT22;7723;52.170;9.978;2023-05-20T04:26:17;10.50;99.90
15241;DHT22;7723;52.170;9.978;2023-05-20T04:28:45;10.50;99.90
15241;DHT22;7723;52.170;9.978;2023-05-20T04:31:14;10.50;99.90
15241;DHT22;7723;52.170;9.978;2023-05-20T04:33:41;10.60;99.90
15241;DHT22;7723;52.170;9.978;2023-05-20T04:36:10;10.60;99.90
15241;DHT22;7723;52.170;9.978;2023-05-20T04:38:40;10.60;99.90
15241;DHT22;7723;52.170;9.978;2023-05-20T04:41:09;10.70;99.90
15241;DHT22;7723;52.170;9.978;2023-05-20T04:43:36;10.70;99.90
15241;DHT22;7723;52.170;9.978;2023-05-20T04:46:04;10.80;99.90
15241;DHT22;7723;52.170;9.978;2023-05-20T04:48:33;10.80;99.90
15241;DHT22;7723;52.170;9.978;2023-05-20T04:51:00;10.90;99.90
15241;DHT22;7723;52.170;9.978;2023-05-20T04:53:27;10.90;99.90
15241;DHT22;7723;52.170;9.978;2023-05-20T04:55:55;11.00;99.90
15241;DHT22;7723;52.170;9.978;2023-05-20T04:58:23;11.00;99.90
15241;DHT22;7723;52.170;9.978;2023-05-20T05:00:51;11.00;99.90
15241;DHT22;7723;52.170;9.978;2023-05-20T05:03:18;11.00;99.90
15241;DHT22;7723;52.170;9.978;2023-05-20T05:05:46;11.10;99.90
15241;DHT22;7723;52.170;9.978;2023-05-20T05:08:13;11.20;99.90
15241;DHT22;7723;52.170;9.978;2023-05-20T05:10:41;11.40;99.90
15241;DHT22;7723;52.170;9.978;2023-05-20T05:13:09;11.90;99.90
15241;DHT22;7723;52.170;9.978;2023-05-20T05:15:36;12.30;99.90
15241;DHT22;7723;52.170;9.978;2023-05-20T05:18:03;13.00;99.90
15241;DHT22;7723;52.170;9.978;2023-05-20T05:20:30;13.70;99.90
15241;DHT22;7723;52.170;9.978;2023-05-20T05:22:58;14.30;99.90
15241;DHT22;7723;52.170;9.978;2023-05-20T05:25:26;14.90;99.90
15241;DHT22;7723;52.170;9.978;2023-05-20T05:27:53;15.00;68.30
15241;DHT22;7723;52.170;9.978;2023-05-20T05:30:20;15.40;1.00
15241;DHT22;7723;52.170;9.978;2023-05-20T05:32:47;15.80;1.00
15241;DHT22;7723;52.170;9.978;2023-05-20T05:35:15;16.10;1.00
15241;DHT22;7723;52.170;9.978;2023-05-20T05:37:42;16.00;1.00
15241;DHT22;7723;52.170;9.978;2023-05-20T05:40:11;16.10;1.00
15241;DHT22;7723;52.170;9.978;2023-05-20T05:42:38;16.00;1.00
15241;DHT22;7723;52.170;9.978;2023-05-20T05:45:07;15.90;1.00
15241;DHT22;7723;52.170;9.978;2023-05-20T05:47:34;15.40;1.00
15241;DHT22;7723;52.170;9.978;2023-05-20T05:50:01;15.90;1.00
15241;DHT22;7723;52.170;9.978;2023-05-20T05:52:28;16.30;1.00
15241;DHT22;7723;52.170;9.978;2023-05-20T05:54:55;16.60;1.00
15241;DHT22;7723;52.170;9.978;2023-05-20T05:57:23;16.30;1.00
15241;DHT22;7723;52.170;9.978;2023-05-20T05:59:51;17.20;1.00
15241;DHT22;7723;52.170;9.978;2023-05-20T06:02:18;17.20;1.00
15241;DHT22;7723;52.170;9.978;2023-05-20T06:04:45;17.00;1.00
15241;DHT22;7723;52.170;9.978;2023-05-20T06:07:12;16.60;1.00
15241;DHT22;7723;52.170;9.978;2023-05-20T06:09:39;15.40;1.00
15241;DHT22;7723;52.170;9.978;2023-05-20T06:12:06;15.40;1.00
15241;DHT22;7723;52.170;9.978;2023-05-20T06:14:35;16.10;1.00
15241;DHT22;7723;52.170;9.978;2023-05-20T06:17:02;16.10;1.00
15241;DHT22;7723;52.170;9.978;2023-05-20T06:19:30;16.30;1.00
15241;DHT22;7723;52.170;9.978;2023-05-20T06:21:57;16.10;1.00
15241;DHT22;7723;52.170;9.978;2023-05-20T06:24:24;16.00;1.00
15241;DHT22;7723;52.170;9.978;2023-05-20T06:26:51;16.10;1.00
15241;DHT22;7723;52.170;9.978;2023-05-20T06:29:18;16.30;1.00
15241;DHT22;7723;52.170;9.978;2023-05-20T06:31:47;15.50;1.00
15241;DHT22;7723;52.170;9.978;2023-05-20T06:34:14;14.70;1.00
15241;DHT22;7723;52.170;9.978;2023-05-20T06:36:41;14.30;1.00
15241;DHT22;7723;52.170;9.978;2023-05-20T06:39:08;14.50;1.00
15241;DHT22;7723;52.170;9.978;2023-05-20T06:41:37;14.40;1.00
15241;DHT22;7723;52.170;9.978;2023-05-20T06:44:05;14.40;1.00
15241;DHT22;7723;52.170;9.978;2023-05-20T06:46:32;14.40;1.00
15241;DHT22;7723;52.170;9.978;2023-05-20T06:49:01;14.80;1.00
15241;DHT22;7723;52.170;9.978;2023-05-20T06:51:28;15.30;1.00
15241;DHT22;7723;52.170;9.978;2023-05-20T06:53:56;15.70;1.00
15241;DHT22;7723;52.170;9.978;2023-05-20T06:56:23;15.80;1.00
15241;DHT22;7723;52.170;9.978;2023-05-20T06:58:50;15.40;1.00
15241;DHT22;7723;52.170;9.978;2023-05-20T07:01:17;14.90;1.00
15241;DHT22;7723;52.170;9.978;2023-05-20T07:03:44;14.40;1.00
15241;DHT22;7723;52.170;9.978;2023-05-20T07:06:12;14.00;1.00
15241;DHT22;7723;52.170;9.978;2023-05-20T07:08:39;13.70;1.00
15241;DHT22;7723;52.170;9.978;2023-05-20T07:11:07;13.50;1.00
15241;DHT22;7723;52.170;9.978;2023-05-20T07:13:34;13.40;1.00
15241;DHT22;7723;52.170;9.978;2023-05-20T07:16:01;13.30;1.00
15241;DHT22;7723;52.170;9.978;2023-05-20T07:18:28;13.40;1.00
15241;DHT22;7723;52.170;9.978;2023-05-20T07:20:55;13.30;1.00
15241;DHT22;7723;52.170;9.978;2023-05-20T07:23:24;13.30;1.00
15241;DHT22;7723;52.170;9.978;2023-05-20T07:25:52;13.50;1.00
15241;DHT22;7723;52.170;9.978;2023-05-20T07:28:19;13.50;1.00
15241;DHT22;7723;52.170;9.978;2023-05-20T07:30:47;13.50;1.00
15241;DHT22;7723;52.170;9.978;2023-05-20T07:33:15;13.40;1.00
15241;DHT22;7723;52.170;9.978;2023-05-20T07:35:43;13.30;4.80
15241;DHT22;7723;52.170;9.978;2023-05-20T07:38:10;13.10;1.00
15241;DHT22;7723;52.170;9.978;2023-05-20T07:40:39;13.30;20.30
15241;DHT22;7723;52.170;9.978;2023-05-20T07:43:07;13.50;12.10
15241;DHT22;7723;52.170;9.978;2023-05-20T07:45:34;13.50;10.20
15241;DHT22;7723;52.170;9.978;2023-05-20T07:48:02;13.60;1.00
15241;DHT22;7723;52.170;9.978;2023-05-20T07:50:29;13.60;1.00
15241;DHT22;7723;52.170;9.978;2023-05-20T07:52:56;13.60;1.00
15241;DHT22;7723;52.170;9.978;2023-05-20T07:55:23;13.70;1.00
15241;DHT22;7723;52.170;9.978;2023-05-20T07:57:52;13.70;1.00
15241;DHT22;7723;52.170;9.978;2023-05-20T08:00:19;13.70;3.60
15241;DHT22;7723;52.170;9.978;2023-05-20T08:02:46;13.90;14.80
15241;DHT22;7723;52.170;9.978;2023-05-20T08:05:13;13.60;21.60
15241;DHT22;7723;52.170;9.978;2023-05-20T08:07:41;13.60;32.50
15241;DHT22;7723;52.170;9.978;2023-05-20T08:10:09;13.60;42.40
15241;DHT22;7723;52.170;9.978;2023-05-20T08:12:36;13.60;64.00
15241;DHT22;7723;52.170;9.978;2023-05-20T08:15:05;13.70;60.40
15241;DHT22;7723;52.170;9.978;2023-05-20T08:17:33;13.90;63.40
15241;DHT22;7723;52.170;9.978;2023-05-20T08:20:01;14.00;32.00
15241;DHT22;7723;52.170;9.978;2023-05-20T08:22:29;14.00;24.60
15241;DHT22;7723;52.170;9.978;2023-05-20T08:24:56;13.90;69.50
15241;DHT22;7723;52.170;9.978;2023-05-20T08:27:23;14.00;83.80
15241;DHT22;7723;52.170;9.978;2023-05-20T08:29:50;14.00;54.40
15241;DHT22;7723;52.170;9.978;2023-05-20T08:32:19;14.10;83.10
15241;DHT22;7723;52.170;9.978;2023-05-20T08:34:46;14.30;87.20
15241;DHT22;7723;52.170;9.978;2023-05-20T08:37:14;14.30;46.60
15241;DHT22;7723;52.170;9.978;2023-05-20T08:39:41;14.20;54.20
15241;DHT22;7723;52.170;9.978;2023-05-20T08:42:11;14.00;64.20
15241;DHT22;7723;52.170;9.978;2023-05-20T08:44:39;14.10;86.80
15241;DHT22;7723;52.170;9.978;2023-05-20T08:47:07;14.20;77.40
15241;DHT22;7723;52.170;9.978;2023-05-20T08:49:36;14.60;28.70
15241;DHT22;7723;52.170;9.978;2023-05-20T08:52:03;15.00;29.30
15241;DHT22;7723;52.170;9.978;2023-05-20T08:54:40;15.20;1.00
15241;DHT22;7723;52.170;9.978;2023-05-20T08:57:09;15.40;1.00
15241;DHT22;7723;52.170;9.978;2023-05-20T08:59:40;15.70;1.00
15241;DHT22;7723;52.170;9.978;2023-05-20T09:02:08;16.30;1.00
15241;DHT22;7723;52.170;9.978;2023-05-20T09:04:37;16.90;1.00
15241;DHT22;7723;52.170;9.978;2023-05-20T09:07:04;17.40;1.00
15241;DHT22;7723;52.170;9.978;2023-05-20T09:09:33;17.00;1.00
15241;DHT22;7723;52.170;9.978;2023-05-20T09:12:00;18.00;1.00
15241;DHT22;7723;52.170;9.978;2023-05-20T09:14:28;19.10;1.00
15241;DHT22;7723;52.170;9.978;2023-05-20T09:16:55;18.90;1.00
15241;DHT22;7723;52.170;9.978;2023-05-20T09:19:23;18.20;1.00
15241;DHT22;7723;52.170;9.978;2023-05-20T09:21:52;18.00;1.00
15241;DHT22;7723;52.170;9.978;2023-05-20T09:24:23;18.60;1.00
15241;DHT22;7723;52.170;9.978;2023-05-20T09:26:51;18.70;1.00
15241;DHT22;7723;52.170;9.978;2023-05-20T09:29:18;19.20;1.00
15241;DHT22;7723;52.170;9.978;2023-05-20T09:31:46;19.30;1.00
15241;DHT22;7723;52.170;9.978;2023-05-20T09:34:13;18.90;1.00
15241;DHT22;7723;52.170;9.978;2023-05-20T09:36:42;18.60;1.00
15241;DHT22;7723;52.170;9.978;2023-05-20T09:39:15;18.50;1.00
15241;DHT22;7723;52.170;9.978;2023-05-20T09:41:53;18.10;1.00
15241;DHT22;7723;52.170;9.978;2023-05-20T09:44:21;17.30;1.00
15241;DHT22;7723;52.170;9.978;2023-05-20T09:46:49;17.50;1.00
15241;DHT22;7723;52.170;9.978;2023-05-20T09:49:18;17.60;1.00
15241;DHT22;7723;52.170;9.978;2023-05-20T09:51:47;17.70;1.00
15241;DHT22;7723;52.170;9.978;2023-05-20T09:54:18;17.50;1.00
15241;DHT22;7723;52.170;9.978;2023-05-20T09:56:46;17.50;1.00
15241;DHT22;7723;52.170;9.978;2023-05-20T09:59:15;17.80;1.00
15241;DHT22;7723;52.170;9.978;2023-05-20T10:01:43;17.70;1.00
15241;DHT22;7723;52.170;9.978;2023-05-20T10:04:12;17.60;1.00
15241;DHT22;7723;52.170;9.978;2023-05-20T10:07:18;17.20;1.00
15241;DHT22;7723;52.170;9.978;2023-05-20T10:09:56;17.10;1.00
15241;DHT22;7723;52.170;9.978;2023-05-20T10:12:33;17.20;1.00
15241;DHT22;7723;52.170;9.978;2023-05-20T10:15:11;16.80;1.00
15241;DHT22;7723;52.170;9.978;2023-05-20T10:17:45;16.80;1.00
15241;DHT22;7723;52.170;9.978;2023-05-20T10:20:13;16.90;1.00
15241;DHT22;7723;52.170;9.978;2023-05-20T10:22:40;17.00;1.00
15241;DHT22;7723;52.170;9.978;2023-05-20T10:25:23;16.50;1.00
15241;DHT22;7723;52.170;9.978;2023-05-20T10:28:02;16.50;1.00
15241;DHT22;7723;52.170;9.978;2023-05-20T10:30:29;16.40;1.00
15241;DHT22;7723;52.170;9.978;2023-05-20T10:32:57;16.60;1.00
15241;DHT22;7723;52.170;9.978;2023-05-20T10:35:29;16.80;1.00
15241;DHT22;7723;52.170;9.978;2023-05-20T10:38:06;16.70;1.00
15241;DHT22;7723;52.170;9.978;2023-05-20T10:40:35;16.70;1.00
15241;DHT22;7723;52.170;9.978;2023-05-20T10:43:09;16.70;1.00
15241;DHT22;7723;52.170;9.978;2023-05-20T10:45:47;16.30;1.00
15241;DHT22;7723;52.170;9.978;2023-05-20T10:48:26;16.00;1.00
15241;DHT22;7723;52.170;9.978;2023-05-20T10:50:57;15.60;1.00
15241;DHT22;7723;52.170;9.978;2023-05-20T10:53:26;15.80;1.00
15241;DHT22;7723;52.170;9.978;2023-05-20T10:55:55;15.50;1.00
15241;DHT22;7723;52.170;9.978;2023-05-20T10:58:23;15.60;1.00
15241;DHT22;7723;52.170;9.978;2023-05-20T11:00:55;15.50;1.00
15241;DHT22;7723;52.170;9.978;2023-05-20T11:03:22;15.50;1.00
15241;DHT22;7723;52.170;9.978;2023-05-20T11:05:50;15.60;1.00
15241;DHT22;7723;52.170;9.978;2023-05-20T11:08:17;15.70;1.00
15241;DHT22;7723;52.170;9.978;2023-05-20T11:10:44;15.80;1.00
15241;DHT22;7723;52.170;9.978;2023-05-20T11:13:13;15.90;1.00
15241;DHT22;7723;52.170;9.978;2023-05-20T11:15:41;15.90;1.00
15241;DHT22;7723;52.170;9.978;2023-05-20T11:18:10;16.00;1.00
15241;DHT22;7723;52.170;9.978;2023-05-20T11:20:39;16.30;1.00
15241;DHT22;7723;52.170;9.978;2023-05-20T11:23:13;16.40;1.00
15241;DHT22;7723;52.170;9.978;2023-05-20T11:25:41;16.70;1.00
15241;DHT22;7723;52.170;9.978;2023-05-20T11:28:11;16.80;1.00
15241;DHT22;7723;52.170;9.978;2023-05-20T11:30:40;16.90;1.00
15241;DHT22;7723;52.170;9.978;2023-05-20T11:33:11;16.80;1.00
15241;DHT22;7723;52.170;9.978;2023-05-20T11:35:44;17.00;1.00
15241;DHT22;7723;52.170;9.978;2023-05-20T11:38:11;17.00;1.00
15241;DHT22;7723;52.170;9.978;2023-05-20T11:40:42;17.00;1.00
15241;DHT22;7723;52.170;9.978;2023-05-20T11:43:11;17.00;1.00
15241;DHT22;7723;52.170;9.978;2023-05-20T11:45:41;16.80;1.00
15241;DHT22;7723;52.170;9.978;2023-05-20T11:48:08;16.90;1.00
15241;DHT22;7723;52.170;9.978;2023-05-20T11:50:37;16.90;1.00
15241;DHT22;7723;52.170;9.978;2023-05-20T11:53:06;16.90;1.00
15241;DHT22;7723;52.170;9.978;2023-05-20T11:55:43;16.70;1.00
15241;DHT22;7723;52.170;9.978;2023-05-20T11:58:10;16.70;1.00
15241;DHT22;7723;52.170;9.978;2023-05-20T12:00:37;16.70;1.00
15241;DHT22;7723;52.170;9.978;2023-05-20T12:03:05;16.90;1.00
15241;DHT22;7723;52.170;9.978;2023-05-20T12:05:32;16.70;1.00
15241;DHT22;7723;52.170;9.978;2023-05-20T12:08:00;16.60;1.00
15241;DHT22;7723;52.170;9.978;2023-05-20T12:10:27;16.40;1.00
15241;DHT22;7723;52.170;9.978;2023-05-20T12:12:54;16.40;1.00
15241;DHT22;7723;52.170;9.978;2023-05-20T12:15:21;16.50;1.00
15241;DHT22;7723;52.170;9.978;2023-05-20T12:17:50;16.60;1.00
15241;DHT22;7723;52.170;9.978;2023-05-20T12:20:21;16.70;1.00
15241;DHT22;7723;52.170;9.978;2023-05-20T12:22:48;16.90;1.00
15241;DHT22;7723;52.170;9.978;2023-05-20T12:25:17;17.00;1.00
15241;DHT22;7723;52.170;9.978;2023-05-20T12:27:45;17.20;1.00
15241;DHT22;7723;52.170;9.978;2023-05-20T12:30:14;17.00;1.00
15241;DHT22;7723;52.170;9.978;2023-05-20T12:32:42;16.80;1.00
15241;DHT22;7723;52.170;9.978;2023-05-20T12:35:09;16.70;1.00
15241;DHT22;7723;52.170;9.978;2023-05-20T12:37:39;16.90;1.00
15241;DHT22;7723;52.170;9.978;2023-05-20T12:40:08;16.90;1.00
15241;DHT22;7723;52.170;9.978;2023-05-20T12:42:36;16.60;1.00
15241;DHT22;7723;52.170;9.978;2023-05-20T12:45:04;16.50;1.00
15241;DHT22;7723;52.170;9.978;2023-05-20T12:47:31;16.80;1.00
15241;DHT22;7723;52.170;9.978;2023-05-20T12:49:59;17.10;1.00
15241;DHT22;7723;52.170;9.978;2023-05-20T12:52:26;17.00;1.00
15241;DHT22;7723;52.170;9.978;2023-05-20T12:54:56;17.00;1.00
15241;DHT22;7723;52.170;9.978;2023-05-20T12:57:23;16.90;1.00
15241;DHT22;7723;52.170;9.978;2023-05-20T12:59:50;16.80;1.00
15241;DHT22;7723;52.170;9.978;2023-05-20T13:02:18;16.60;1.00
15241;DHT22;7723;52.170;9.978;2023-05-20T13:04:45;16.60;1.00
15241;DHT22;7723;52.170;9.978;2023-05-20T13:07:12;16.30;1.00
15241;DHT22;7723;52.170;9.978;2023-05-20T13:09:39;16.70;1.00
15241;DHT22;7723;52.170;9.978;2023-05-20T13:12:08;16.40;1.00
15241;DHT22;7723;52.170;9.978;2023-05-20T13:14:36;16.30;1.00
15241;DHT22;7723;52.170;9.978;2023-05-20T13:17:03;16.40;1.00
15241;DHT22;7723;52.170;9.978;2023-05-20T13:19:30;16.50;1.00
15241;DHT22;7723;52.170;9.978;2023-05-20T13:21:58;16.30;1.00
15241;DHT22;7723;52.170;9.978;2023-05-20T13:24:25;16.50;1.00
15241;DHT22;7723;52.170;9.978;2023-05-20T13:26:52;16.60;1.00
15241;DHT22;7723;52.170;9.978;2023-05-20T13:29:21;16.40;1.00
15241;DHT22;7723;52.170;9.978;2023-05-20T13:31:48;16.50;1.00
15241;DHT22;7723;52.170;9.978;2023-05-20T13:34:15;16.60;1.00
15241;DHT22;7723;52.170;9.978;2023-05-20T13:36:42;16.50;1.00
15241;DHT22;7723;52.170;9.978;2023-05-20T13:39:10;16.70;1.00
15241;DHT22;7723;52.170;9.978;2023-05-20T13:41:37;16.50;1.00
15241;DHT22;7723;52.170;9.978;2023-05-20T13:44:04;16.30;1.00
15241;DHT22;7723;52.170;9.978;2023-05-20T13:46:33;16.30;1.00
15241;DHT22;7723;52.170;9.978;2023-05-20T13:49:00;16.20;1.00
15241;DHT22;7723;52.170;9.978;2023-05-20T13:51:28;16.20;1.00
15241;DHT22;7723;52.170;9.978;2023-05-20T13:53:56;16.20;1.00
15241;DHT22;7723;52.170;9.978;2023-05-20T13:56:23;16.10;1.00
15241;DHT22;7723;52.170;9.978;2023-05-20T13:58:50;16.10;1.00
15241;DHT22;7723;52.170;9.978;2023-05-20T14:01:17;16.10;1.00
15241;DHT22;7723;52.170;9.978;2023-05-20T14:03:46;16.20;1.00
15241;DHT22;7723;52.170;9.978;2023-05-20T14:06:13;16.30;1.00
15241;DHT22;7723;52.170;9.978;2023-05-20T14:08:43;16.30;1.00
15241;DHT22;7723;52.170;9.978;2023-05-20T14:11:10;16.50;1.00
15241;DHT22;7723;52.170;9.978;2023-05-20T14:13:37;16.60;1.00
15241;DHT22;7723;52.170;9.978;2023-05-20T14:16:05;16.70;1.00
15241;DHT22;7723;52.170;9.978;2023-05-20T14:18:32;16.70;1.00
15241;DHT22;7723;52.170;9.978;2023-05-20T14:21:00;16.70;1.00
15241;DHT22;7723;52.170;9.978;2023-05-20T14:23:27;16.70;1.00
15241;DHT22;7723;52.170;9.978;2023-05-20T14:25:54;16.60;1.00
15241;DHT22;7723;52.170;9.978;2023-05-20T14:28:21;16.50;1.00
15241;DHT22;7723;52.170;9.978;2023-05-20T14:30:49;16.50;1.00
15241;DHT22;7723;52.170;9.978;2023-05-20T14:33:16;16.40;1.00
15241;DHT22;7723;52.170;9.978;2023-05-20T14:35:43;16.40;1.00
15241;DHT22;7723;52.170;9.978;2023-05-20T14:38:11;16.60;1.00
15241;DHT22;7723;52.170;9.978;2023-05-20T14:40:38;16.70;1.00
15241;DHT22;7723;52.170;9.978;2023-05-20T14:43:05;16.40;1.00
15241;DHT22;7723;52.170;9.978;2023-05-20T14:45:33;16.30;1.00
15241;DHT22;7723;52.170;9.978;2023-05-20T14:48:00;16.50;1.00
15241;DHT22;7723;52.170;9.978;2023-05-20T14:50:27;16.40;1.00
15241;DHT22;7723;52.170;9.978;2023-05-20T14:52:54;16.30;1.00
15241;DHT22;7723;52.170;9.978;2023-05-20T14:55:23;16.30;1.00
15241;DHT22;7723;52.170;9.978;2023-05-20T14:57:50;16.10;1.00
15241;DHT22;7723;52.170;9.978;2023-05-20T15:00:18;16.00;1.00
15241;DHT22;7723;52.170;9.978;2023-05-20T15:02:48;16.20;1.00
15241;DHT22;7723;52.170;9.978;2023-05-20T15:05:15;16.20;1.00
15241;DHT22;7723;52.170;9.978;2023-05-20T15:07:42;16.20;1.00
15241;DHT22;7723;52.170;9.978;2023-05-20T15:10:09;16.30;1.00
15241;DHT22;7723;52.170;9.978;2023-05-20T15:12:38;16.20;1.00
15241;DHT22;7723;52.170;9.978;2023-05-20T15:15:06;16.20;1.00
15241;DHT22;7723;52.170;9.978;2023-05-20T15:17:33;16.30;1.00
15241;DHT22;7723;52.170;9.978;2023-05-20T15:20:00;16.30;1.00
15241;DHT22;7723;52.170;9.978;2023-05-20T15:22:28;16.20;1.00
15241;DHT22;7723;52.170;9.978;2023-05-20T15:24:55;16.40;1.00
15241;DHT22;7723;52.170;9.978;2023-05-20T15:27:22;16.70;1.00
15241;DHT22;7723;52.170;9.978;2023-05-20T15:29:51;16.80;1.00
15241;DHT22;7723;52.170;9.978;2023-05-20T15:32:18;16.70;1.00
15241;DHT22;7723;52.170;9.978;2023-05-20T15:34:45;16.90;1.00
15241;DHT22;7723;52.170;9.978;2023-05-20T15:37:12;17.00;1.00
15241;DHT22;7723;52.170;9.978;2023-05-20T15:39:39;17.20;1.00
15241;DHT22;7723;52.170;9.978;2023-05-20T15:42:06;17.00;1.00
15241;DHT22;7723;52.170;9.978;2023-05-20T15:44:38;16.90;1.00
15241;DHT22;7723;52.170;9.978;2023-05-20T15:47:06;17.00;1.00
15241;DHT22;7723;52.170;9.978;2023-05-20T15:49:34;17.20;1.00
15241;DHT22;7723;52.170;9.978;2023-05-20T15:52:01;17.20;1.00
15241;DHT22;7723;52.170;9.978;2023-05-20T15:54:28;17.20;1.00
15241;DHT22;7723;52.170;9.978;2023-05-20T15:56:55;17.30;1.00
15241;DHT22;7723;52.170;9.978;2023-05-20T15:59:22;17.30;1.00
15241;DHT22;7723;52.170;9.978;2023-05-20T16:01:49;17.30;1.00